createdAt,value
2018-03-24T00:01:09.767Z,90.91
2018-03-24T00:03:38.801Z,91.17
2018-03-24T00:06:07.076Z,91.71
2018-03-24T00:08:35.332Z,92.99
2018-03-24T00:11:03.596Z,92.92
2018-03-24T00:13:32.711Z,93.33
2018-03-24T00:16:00.975Z,95.50
2018-03-24T00:18:29.260Z,96.39
2018-03-24T00:20:57.530Z,95.49
2018-03-24T00:23:25.779Z,94.28
2018-03-24T00:25:54.816Z,93.08
2018-03-24T00:28:23.118Z,92.30
2018-03-24T00:30:51.407Z,91.34
2018-03-24T00:33:19.658Z,90.98
2018-03-24T00:35:47.913Z,90.96
2018-03-24T00:38:16.164Z,92.69
2018-03-24T00:40:45.215Z,92.55
2018-03-24T00:43:13.477Z,92.97
2018-03-24T00:45:41.748Z,96.93
2018-03-24T00:48:10.023Z,96.72
2018-03-24T00:50:38.280Z,96.39
2018-03-24T00:53:06.556Z,95.23
2018-03-24T00:55:34.813Z,94.01
2018-03-24T00:58:03.832Z,92.44
2018-03-24T01:00:32.120Z,91.38
2018-03-24T01:03:00.364Z,91.65
2018-03-24T01:05:28.632Z,91.85
2018-03-24T01:07:57.691Z,95.66
2018-03-24T01:10:25.971Z,96.41
2018-03-24T01:12:54.244Z,96.80
2018-03-24T01:15:22.501Z,95.38
2018-03-24T01:17:50.780Z,94.75
2018-03-24T01:20:19.033Z,94.49
2018-03-24T01:22:47.287Z,93.50
2018-03-24T01:25:15.567Z,93.12
2018-03-24T01:27:43.835Z,92.98
2018-03-24T01:30:12.892Z,93.04
2018-03-24T01:32:41.155Z,93.89
2018-03-24T01:35:09.443Z,93.55
2018-03-24T01:37:37.705Z,92.89
2018-03-24T01:40:05.977Z,92.18
2018-03-24T01:42:34.223Z,92.29
2018-03-24T01:45:02.480Z,91.86
2018-03-24T01:47:31.547Z,92.32
2018-03-24T01:49:59.804Z,93.14
2018-03-24T01:52:28.123Z,93.44
2018-03-24T01:54:57.144Z,95.57
2018-03-24T01:57:25.395Z,97.80
2018-03-24T01:59:54.443Z,98.99
2018-03-24T02:02:22.716Z,98.54
2018-03-24T02:04:50.974Z,97.94
2018-03-24T02:07:19.250Z,98.35
2018-03-24T02:09:47.504Z,98.33
2018-03-24T02:12:15.755Z,99.67
2018-03-24T02:14:45.547Z,99.90
2018-03-24T02:17:13.804Z,100.00
2018-03-24T02:19:42.077Z,100.00
2018-03-24T02:22:10.353Z,99.83
2018-03-24T02:27:43.143Z,97.31
2018-03-24T02:30:11.414Z,96.42
2018-03-24T02:32:39.684Z,96.60
2018-03-24T02:35:07.948Z,96.28
2018-03-24T02:37:36.988Z,96.62
2018-03-24T02:40:05.279Z,96.63
2018-03-24T02:42:33.518Z,96.53
2018-03-24T02:45:01.896Z,96.52
2018-03-24T02:47:30.169Z,96.09
2018-03-24T02:49:58.431Z,96.80
2018-03-24T02:52:26.708Z,97.10
2018-03-24T02:54:54.965Z,97.00
2018-03-24T02:57:23.988Z,96.73
2018-03-24T02:59:52.269Z,96.96
2018-03-24T03:02:20.549Z,97.79
2018-03-24T03:04:48.804Z,97.95
2018-03-24T03:07:17.083Z,98.50
2018-03-24T03:09:45.345Z,98.05
2018-03-24T03:12:14.367Z,98.83
2018-03-24T03:14:42.645Z,99.08
2018-03-24T03:17:10.927Z,99.70
2018-03-24T03:19:39.185Z,99.67
2018-03-24T03:22:07.479Z,100.00
2018-03-24T03:24:35.737Z,100.00
2018-03-24T03:27:04.115Z,99.42
2018-03-24T03:29:32.369Z,98.52
2018-03-24T03:32:20.184Z,97.72
2018-03-24T03:34:48.455Z,97.43
2018-03-24T03:37:17.500Z,97.41
2018-03-24T03:39:45.776Z,99.25
2018-03-24T03:42:14.020Z,99.01
2018-03-24T03:44:43.091Z,98.80
2018-03-24T03:47:11.369Z,98.75
2018-03-24T03:49:39.625Z,98.55
2018-03-24T03:52:07.880Z,98.67
2018-03-24T03:54:36.162Z,99.33
2018-03-24T03:57:04.419Z,99.09
2018-03-24T03:59:32.680Z,98.05
2018-03-24T04:02:01.730Z,97.60
2018-03-24T04:04:29.990Z,97.28
2018-03-24T04:06:58.237Z,98.19
2018-03-24T04:09:26.633Z,98.15
2018-03-24T04:11:54.921Z,98.25
2018-03-24T04:14:23.168Z,98.11
2018-03-24T04:16:51.443Z,98.50
2018-03-24T04:19:19.703Z,99.68
2018-03-24T04:21:48.727Z,99.87
2018-03-24T04:24:17.003Z,100.00
2018-03-24T04:26:45.260Z,100.00
2018-03-24T04:29:13.553Z,100.00
2018-03-24T04:31:41.816Z,100.00
2018-03-24T04:34:10.122Z,100.00
2018-03-24T04:36:38.404Z,100.00
2018-03-24T04:39:06.660Z,100.00
2018-03-24T04:41:34.920Z,100.00
2018-03-24T04:44:03.192Z,100.00
2018-03-24T04:46:31.445Z,100.00
2018-03-24T04:48:59.728Z,100.00
2018-03-24T04:51:28.757Z,100.00
2018-03-24T04:53:57.021Z,100.00
2018-03-24T04:56:25.292Z,100.00
2018-03-24T04:58:53.602Z,100.00
2018-03-24T05:01:21.965Z,100.00
2018-03-24T05:03:50.271Z,100.00
2018-03-24T05:06:18.539Z,100.00
2018-03-24T05:08:46.789Z,100.00
2018-03-24T05:11:15.064Z,100.00
2018-03-24T05:13:43.329Z,99.61
2018-03-24T05:16:12.352Z,99.03
2018-03-24T05:18:40.614Z,99.05
2018-03-24T05:21:08.885Z,99.56
2018-03-24T05:23:37.144Z,99.17
2018-03-24T05:26:06.176Z,99.08
2018-03-24T05:28:34.464Z,98.71
2018-03-24T05:31:02.720Z,99.16
2018-03-24T05:33:30.992Z,99.48
2018-03-24T05:35:59.365Z,99.02
2018-03-24T05:38:27.617Z,98.64
2018-03-24T05:40:55.890Z,97.97
2018-03-24T05:43:24.943Z,96.70
2018-03-24T05:45:53.197Z,98.29
2018-03-24T05:48:21.443Z,99.92
2018-03-24T05:50:49.717Z,99.76
2018-03-24T05:53:18.831Z,99.25
2018-03-24T05:55:47.093Z,98.65
2018-03-24T05:58:15.359Z,97.93
2018-03-24T06:00:44.386Z,96.90
2018-03-24T06:03:12.672Z,96.69
2018-03-24T06:05:40.931Z,95.88
2018-03-24T06:08:09.195Z,95.23
2018-03-24T06:10:37.511Z,95.98
2018-03-24T06:13:05.724Z,96.65
2018-03-24T06:15:34.875Z,96.12
2018-03-24T06:18:03.127Z,95.38
2018-03-24T06:20:31.397Z,94.96
2018-03-24T06:22:59.672Z,94.60
2018-03-24T06:25:27.927Z,93.97
2018-03-24T06:27:56.943Z,94.20
2018-03-24T06:43:53.671Z,94.67
2018-03-24T06:46:22.062Z,94.53
2018-03-24T06:48:50.348Z,94.31
2018-03-24T06:51:18.613Z,94.02
2018-03-24T06:53:46.871Z,93.10
2018-03-24T06:56:15.128Z,93.73
2018-03-24T06:58:44.160Z,93.80
2018-03-24T07:01:12.427Z,92.35
2018-03-24T07:03:40.688Z,91.99
2018-03-24T07:06:09.724Z,91.36
2018-03-24T07:08:37.982Z,91.68
2018-03-24T07:11:06.244Z,91.76
2018-03-24T07:13:34.524Z,91.28
2018-03-24T07:16:02.786Z,90.82
2018-03-24T07:18:31.802Z,90.33
2018-03-24T07:21:00.120Z,90.05
2018-03-24T07:23:28.377Z,89.95
2018-03-24T07:25:56.636Z,88.92
2018-03-24T07:28:24.900Z,88.91
2018-03-24T07:30:53.174Z,90.08
2018-03-24T07:33:21.504Z,89.41
2018-03-24T07:35:49.838Z,89.50
2018-03-24T07:38:18.322Z,89.48
2018-03-24T07:40:46.667Z,88.22
2018-03-24T07:43:14.948Z,88.69
2018-03-24T07:45:43.977Z,88.06
2018-03-24T07:48:12.223Z,88.21
2018-03-24T07:50:40.516Z,87.11
2018-03-24T07:53:08.776Z,85.75
2018-03-24T07:55:37.051Z,86.23
2018-03-24T07:58:05.331Z,85.86
2018-03-24T08:00:33.604Z,85.41
2018-03-24T08:03:02.635Z,87.59
2018-03-24T08:05:30.906Z,87.69
2018-03-24T08:07:59.164Z,87.92
2018-03-24T08:10:27.432Z,88.42
2018-03-24T08:12:55.742Z,87.50
2018-03-24T08:15:24.103Z,87.54
2018-03-24T08:17:52.460Z,88.23
2018-03-24T08:20:20.794Z,89.49
2018-03-24T08:22:49.102Z,88.79
2018-03-24T08:25:17.434Z,89.29
2018-03-24T08:27:45.777Z,89.05
2018-03-24T08:30:14.130Z,89.77
2018-03-24T08:32:42.407Z,89.23
2018-03-24T08:35:11.442Z,88.60
2018-03-24T08:37:39.720Z,88.70
2018-03-24T08:40:07.984Z,89.77
2018-03-24T08:42:36.274Z,90.63
2018-03-24T08:45:04.528Z,88.67
2018-03-24T08:47:32.782Z,86.42
2018-03-24T08:50:01.857Z,86.09
2018-03-24T08:52:30.084Z,84.34
2018-03-24T08:54:58.367Z,85.03
2018-03-24T08:57:26.903Z,83.22
2018-03-24T08:59:55.179Z,81.24
2018-03-24T09:02:24.215Z,81.15
2018-03-24T09:04:52.509Z,81.24
2018-03-24T09:07:20.772Z,82.79
2018-03-24T09:09:49.065Z,82.74
2018-03-24T09:12:17.344Z,80.67
2018-03-24T09:14:45.620Z,79.70
2018-03-24T09:17:13.876Z,79.22
2018-03-24T09:19:42.142Z,78.53
2018-03-24T09:22:10.473Z,78.77
2018-03-24T09:24:38.683Z,78.11
2018-03-24T09:27:06.968Z,77.28
2018-03-24T09:29:35.253Z,75.63
2018-03-24T09:32:03.525Z,73.53
2018-03-24T09:34:31.793Z,74.98
2018-03-24T09:37:00.101Z,71.42
2018-03-24T09:39:28.443Z,72.60
2018-03-24T09:41:56.712Z,71.15
2018-03-24T09:44:25.763Z,69.92
2018-03-24T09:46:54.031Z,70.49
2018-03-24T09:49:22.320Z,70.40
2018-03-24T09:51:50.595Z,69.56
2018-03-24T09:54:18.881Z,69.07
2018-03-24T09:56:47.155Z,68.50
2018-03-24T09:59:15.470Z,68.35
2018-03-24T10:01:43.720Z,67.17
2018-03-24T10:04:12.773Z,68.11
2018-03-24T10:06:41.040Z,67.01
2018-03-24T10:09:09.333Z,65.91
2018-03-24T10:11:37.620Z,66.75
2018-03-24T10:14:05.880Z,67.07
2018-03-24T10:16:34.200Z,66.53
2018-03-24T10:19:03.253Z,67.02
2018-03-24T10:25:06.779Z,65.45
2018-03-24T10:27:35.060Z,68.30
2018-03-24T10:30:04.131Z,68.37
2018-03-24T10:32:34.160Z,67.16
2018-03-24T10:35:07.344Z,66.43
2018-03-24T10:37:41.285Z,66.40
2018-03-24T10:40:09.553Z,66.71
2018-03-24T10:42:37.819Z,65.26
2018-03-24T10:45:06.114Z,67.63
2018-03-24T10:47:34.380Z,65.25
2018-03-24T10:50:02.648Z,65.09
2018-03-24T10:52:30.933Z,64.64
2018-03-24T10:54:59.290Z,62.89
2018-03-24T10:57:27.544Z,62.82
2018-03-24T10:59:55.828Z,62.97
2018-03-24T11:02:24.104Z,60.16
2018-03-24T11:04:52.364Z,59.17
2018-03-24T11:07:20.657Z,61.19
2018-03-24T11:09:48.925Z,60.04
2018-03-24T11:12:17.200Z,60.36
2018-03-24T11:14:45.485Z,59.52
2018-03-24T11:17:13.757Z,60.07
2018-03-24T11:19:42.016Z,60.85
2018-03-24T11:22:10.305Z,60.50
2018-03-24T11:24:38.563Z,60.65
2018-03-24T11:27:07.608Z,60.62
2018-03-24T11:29:35.888Z,60.16
2018-03-24T11:32:04.149Z,60.04
2018-03-24T11:34:32.524Z,61.45
2018-03-24T11:37:00.819Z,58.53
2018-03-24T11:39:29.171Z,58.13
2018-03-24T11:41:57.432Z,57.45
2018-03-24T11:44:25.723Z,56.12
2018-03-24T11:46:53.975Z,52.93
2018-03-24T11:49:22.271Z,55.57
2018-03-24T11:51:50.536Z,55.93
2018-03-24T11:54:36.830Z,54.70
2018-03-24T11:57:05.101Z,54.41
2018-03-24T11:59:34.139Z,55.14
2018-03-24T12:02:02.415Z,57.11
2018-03-24T12:04:30.675Z,55.89
2018-03-24T12:06:58.934Z,56.08
2018-03-24T12:09:27.223Z,57.38
2018-03-24T12:11:55.495Z,59.83
2018-03-24T12:14:23.795Z,59.57
2018-03-24T12:16:52.076Z,59.95
2018-03-24T12:19:20.339Z,59.41
2018-03-24T12:21:48.608Z,61.55
2018-03-24T12:24:16.880Z,60.18
2018-03-24T12:26:45.153Z,60.35
2018-03-24T12:29:13.420Z,59.94
2018-03-24T12:31:41.685Z,59.75
2018-03-24T12:34:10.773Z,59.71
2018-03-24T12:36:39.797Z,58.33
2018-03-24T12:39:08.072Z,58.60
2018-03-24T12:41:36.353Z,59.01
2018-03-24T12:44:04.617Z,58.64
2018-03-24T12:46:32.897Z,59.37
2018-03-24T12:49:02.020Z,55.26
2018-03-24T12:51:30.374Z,55.04
2018-03-24T12:53:58.640Z,55.63
2018-03-24T12:56:26.917Z,54.80
2018-03-24T12:58:55.171Z,54.06
2018-03-24T13:01:24.212Z,53.74
2018-03-24T13:03:52.503Z,51.93
2018-03-24T13:06:20.766Z,54.37
2018-03-24T13:08:49.019Z,51.83
2018-03-24T13:11:17.308Z,51.77
2018-03-24T13:13:45.564Z,51.99
2018-03-24T13:16:13.833Z,52.63
2018-03-24T13:18:43.007Z,51.87
2018-03-24T13:21:11.285Z,53.27
2018-03-24T13:23:40.309Z,53.36
2018-03-24T13:26:08.588Z,53.38
2018-03-24T13:28:36.843Z,53.74
2018-03-24T13:31:05.878Z,53.73
2018-03-24T13:33:34.151Z,53.75
2018-03-24T13:36:02.424Z,55.26
2018-03-24T13:38:30.679Z,54.61
2018-03-24T13:40:58.966Z,54.72
2018-03-24T13:43:27.228Z,53.60
2018-03-24T13:45:55.492Z,51.90
2018-03-24T13:48:24.543Z,51.75
2018-03-24T13:50:52.805Z,51.71
2018-03-24T13:53:21.164Z,51.59
2018-03-24T13:55:49.448Z,49.37
2018-03-24T13:58:17.712Z,48.50
2018-03-24T14:00:45.979Z,47.94
2018-03-24T14:03:14.255Z,46.85
2018-03-24T14:05:42.520Z,44.23
2018-03-24T14:08:11.544Z,41.93
2018-03-24T14:10:39.836Z,43.45
2018-03-24T14:13:08.096Z,43.86
2018-03-24T14:15:36.373Z,44.09
2018-03-24T14:18:04.647Z,41.54
2018-03-24T14:20:32.927Z,39.52
2018-03-24T14:23:01.200Z,38.57
2018-03-24T14:25:29.476Z,38.73
2018-03-24T14:27:57.760Z,36.79
2018-03-24T14:30:26.040Z,36.87
2018-03-24T14:32:54.319Z,34.70
2018-03-24T14:35:22.614Z,36.70
2018-03-24T14:37:50.883Z,36.46
2018-03-24T14:40:19.157Z,38.86
2018-03-24T14:42:47.424Z,40.41
2018-03-24T14:45:15.691Z,41.17
2018-03-24T14:47:43.963Z,41.49
2018-03-24T14:50:12.246Z,40.95
2018-03-24T14:52:40.499Z,41.44
2018-03-24T14:55:08.794Z,42.41
2018-03-24T14:57:37.049Z,41.23
2018-03-24T15:00:05.307Z,42.90
2018-03-24T15:02:34.354Z,43.48
2018-03-24T15:05:02.624Z,44.88
2018-03-24T15:07:30.902Z,44.83
2018-03-24T15:09:59.176Z,45.50
2018-03-24T15:12:27.462Z,44.61
2018-03-24T15:14:55.723Z,45.87
2018-03-24T15:17:23.993Z,44.44
2018-03-24T15:19:52.256Z,43.73
2018-03-24T15:22:20.522Z,40.56
2018-03-24T15:24:48.795Z,40.72
2018-03-24T15:27:17.849Z,40.24
2018-03-24T15:30:03.880Z,40.58
2018-03-24T15:32:50.615Z,38.91
2018-03-24T15:35:46.512Z,39.71
2018-03-24T15:38:15.543Z,38.67
2018-03-24T15:40:43.814Z,37.07
2018-03-24T15:43:12.153Z,37.87
2018-03-24T15:45:40.391Z,36.48
2018-03-24T15:48:08.743Z,36.92
2018-03-24T15:50:37.044Z,36.99
2018-03-24T15:53:05.295Z,35.70
2018-03-24T15:55:33.647Z,37.21
2018-03-24T15:58:01.973Z,36.44
2018-03-24T16:00:30.249Z,35.08
2018-03-24T16:02:58.510Z,36.64
2018-03-24T16:05:26.804Z,35.57
2018-03-24T16:07:55.060Z,34.80
2018-03-24T16:10:23.360Z,35.58
2018-03-24T16:12:51.732Z,36.06
2018-03-24T16:15:20.014Z,34.61
2018-03-24T16:17:48.273Z,35.50
2018-03-24T16:20:16.635Z,35.81
2018-03-24T16:22:44.940Z,35.41
2018-03-24T16:25:13.196Z,35.32
2018-03-24T16:27:41.475Z,33.75
2018-03-24T16:30:09.739Z,34.16
2018-03-24T16:32:37.999Z,34.65
2018-03-24T16:35:06.278Z,34.84
2018-03-24T16:37:34.556Z,34.04
2018-03-24T16:40:02.816Z,34.41
2018-03-24T16:42:31.864Z,36.30
2018-03-24T16:45:00.136Z,37.25
2018-03-24T16:47:28.442Z,37.87
2018-03-24T16:49:56.720Z,39.06
2018-03-24T16:52:24.988Z,39.95
2018-03-24T16:54:53.320Z,40.52
2018-03-24T16:57:21.597Z,41.27
2018-03-24T16:59:49.860Z,42.86
2018-03-24T17:02:18.119Z,43.68
2018-03-24T17:04:47.194Z,44.24
2018-03-24T17:07:15.468Z,44.84
2018-03-24T17:09:43.737Z,45.74
2018-03-24T17:12:12.016Z,46.01
2018-03-24T17:14:40.318Z,46.20
2018-03-24T17:17:09.362Z,47.47
2018-03-24T17:19:37.657Z,47.60
2018-03-24T17:22:05.921Z,49.09
2018-03-24T17:24:34.188Z,50.24
2018-03-24T17:27:02.469Z,51.22
2018-03-24T17:29:30.745Z,51.40
2018-03-24T17:31:59.020Z,51.94
2018-03-24T17:34:27.315Z,53.13
2018-03-24T17:36:55.578Z,54.29
2018-03-24T17:39:23.849Z,55.80
2018-03-24T17:41:52.131Z,56.73
2018-03-24T17:44:20.414Z,56.89
2018-03-24T17:46:48.659Z,58.29
2018-03-24T17:49:16.943Z,58.59
2018-03-24T17:51:45.286Z,59.28
2018-03-24T17:54:14.327Z,59.73
2018-03-24T17:56:42.632Z,60.63
2018-03-24T17:59:10.885Z,61.35
2018-03-24T18:01:39.160Z,62.01
2018-03-24T18:04:07.440Z,62.61
2018-03-24T18:06:35.700Z,64.63
2018-03-24T18:09:03.957Z,64.74
2018-03-24T18:11:32.241Z,65.50
2018-03-24T18:14:00.529Z,66.04
2018-03-24T18:16:28.896Z,66.61
2018-03-24T18:18:57.194Z,66.96
2018-03-24T18:21:25.535Z,67.30
2018-03-24T18:23:53.810Z,67.48
2018-03-24T18:26:22.608Z,67.86
2018-03-24T18:28:50.940Z,68.16
2018-03-24T18:31:19.198Z,67.98
2018-03-24T18:33:47.489Z,67.66
2018-03-24T18:36:15.806Z,67.92
2018-03-24T18:38:44.127Z,67.48
2018-03-24T18:41:12.488Z,67.37
2018-03-24T18:43:40.927Z,67.26
2018-03-24T18:46:09.352Z,67.67
2018-03-24T18:48:38.017Z,67.72
2018-03-24T18:51:06.349Z,68.53
2018-03-24T18:53:36.052Z,69.77
2018-03-24T18:56:04.742Z,70.11
2018-03-24T18:58:33.355Z,70.74
2018-03-24T19:01:03.252Z,71.55
2018-03-24T19:03:31.727Z,71.91
2018-03-24T19:06:01.651Z,71.95
2018-03-24T19:08:31.306Z,71.68
2018-03-24T19:11:02.467Z,72.34
2018-03-24T19:13:32.608Z,72.73
2018-03-24T19:16:02.525Z,73.14
2018-03-24T19:18:32.287Z,73.83
2018-03-24T19:21:02.883Z,74.12
2018-03-24T19:23:32.292Z,74.64
2018-03-24T19:26:02.262Z,74.79
2018-03-24T19:28:32.079Z,75.38
2018-03-24T19:31:01.775Z,75.73
2018-03-24T19:33:31.703Z,77.97
2018-03-24T19:36:01.516Z,78.53
2018-03-24T19:38:31.381Z,78.39
2018-03-24T19:41:01.555Z,78.17
2018-03-24T19:43:31.435Z,77.68
2018-03-24T19:46:01.114Z,77.83
2018-03-24T19:48:32.051Z,79.05
2018-03-24T19:51:01.886Z,78.37
2018-03-24T19:53:31.731Z,78.27
2018-03-24T19:56:01.823Z,77.73
2018-03-24T19:58:31.727Z,77.68
2018-03-24T20:01:02.469Z,78.28
2018-03-24T20:03:32.381Z,78.01
2018-03-24T20:06:02.172Z,77.56
2018-03-24T20:08:32.909Z,76.95
2018-03-24T20:11:02.779Z,77.55
2018-03-24T20:13:32.663Z,77.64
2018-03-24T20:16:03.292Z,77.76
2018-03-24T20:18:33.839Z,77.53
2018-03-24T20:21:03.542Z,78.72
2018-03-24T20:23:33.284Z,78.90
2018-03-24T20:26:03.235Z,78.96
2018-03-24T20:28:33.918Z,78.42
2018-03-24T20:31:03.678Z,78.57
2018-03-24T20:33:33.568Z,78.47
2018-03-24T20:36:03.433Z,78.32
2018-03-24T20:38:33.456Z,78.75
2018-03-24T20:41:03.557Z,79.28
2018-03-24T20:43:34.498Z,79.24
2018-03-24T20:46:05.110Z,79.57
2018-03-24T20:48:35.167Z,80.57
2018-03-24T20:51:05.193Z,81.97
2018-03-24T20:53:34.569Z,81.66
2018-03-24T20:56:03.770Z,81.96
2018-03-24T20:58:33.033Z,82.03
2018-03-24T21:01:02.432Z,82.05
2018-03-24T21:03:32.280Z,82.90
2018-03-24T21:06:02.142Z,82.80
2018-03-24T21:08:32.028Z,82.16
2018-03-24T21:11:01.913Z,81.79
2018-03-24T21:13:32.502Z,81.67
2018-03-24T21:16:02.448Z,82.21
2018-03-24T21:18:33.105Z,82.62
2018-03-24T21:21:03.389Z,82.63
2018-03-24T21:23:33.317Z,82.98
2018-03-24T21:26:04.053Z,83.05
2018-03-24T21:28:34.689Z,83.43
2018-03-24T21:31:05.597Z,83.22
2018-03-24T21:33:35.394Z,83.42
2018-03-24T21:36:05.383Z,83.20
2018-03-24T21:38:35.896Z,83.17
2018-03-24T21:41:06.446Z,83.06
2018-03-24T21:43:36.260Z,83.21
2018-03-24T21:46:06.121Z,83.31
2018-03-24T21:48:35.937Z,83.07
2018-03-24T21:51:06.469Z,82.55
2018-03-24T21:53:36.336Z,82.64
2018-03-24T21:56:06.341Z,82.80
2018-03-24T21:58:35.999Z,82.69
2018-03-24T22:01:05.909Z,82.10
2018-03-24T22:03:35.907Z,81.88
2018-03-24T22:06:05.946Z,82.91
2018-03-24T22:08:35.745Z,83.48
2018-03-24T22:11:05.568Z,84.82
2018-03-24T22:13:35.176Z,84.38
2018-03-24T22:16:05.300Z,84.36
2018-03-24T22:18:35.444Z,84.81
2018-03-24T22:21:06.159Z,85.11
2018-03-24T22:23:36.670Z,85.97
2018-03-24T22:26:05.130Z,86.09
2018-03-24T22:28:34.200Z,86.28
2018-03-24T22:31:02.569Z,85.91
2018-03-24T22:33:30.852Z,86.05
2018-03-24T22:35:59.111Z,85.54
2018-03-24T22:38:27.401Z,84.89
2018-03-24T22:40:55.715Z,85.20
2018-03-24T22:43:23.975Z,85.27
2018-03-24T22:45:52.244Z,85.75
2018-03-24T22:48:20.503Z,85.19
2018-03-24T22:50:48.804Z,84.61
2018-03-24T22:53:17.051Z,84.20
2018-03-24T22:55:45.306Z,83.42
2018-03-24T22:58:13.596Z,83.91
2018-03-24T23:00:41.861Z,83.56
2018-03-24T23:03:10.125Z,84.59
2018-03-24T23:05:39.144Z,85.28
2018-03-24T23:08:07.430Z,86.51
2018-03-24T23:10:35.694Z,86.66
2018-03-24T23:13:03.972Z,86.21
2018-03-24T23:15:32.254Z,86.46
2018-03-24T23:18:00.553Z,87.53
2018-03-24T23:20:28.828Z,86.96
2018-03-24T23:22:57.092Z,85.98
2018-03-24T23:25:25.363Z,85.73
2018-03-24T23:27:54.200Z,86.23
2018-03-24T23:30:22.447Z,86.36
2018-03-24T23:32:50.712Z,86.50
2018-03-24T23:35:18.965Z,86.63
2018-03-24T23:37:47.232Z,86.04
2018-03-24T23:40:15.488Z,85.75
2018-03-24T23:42:44.508Z,84.87
2018-03-24T23:45:12.776Z,85.92
2018-03-24T23:47:41.024Z,86.29
2018-03-24T23:50:09.291Z,85.80
2018-03-24T23:52:37.564Z,86.38
2018-03-24T23:55:05.823Z,86.63
2018-03-24T23:57:34.152Z,86.22
